createdAt,value
2023-04-20T00:00:34.137Z,42.89
2023-04-20T00:03:07.277Z,42.90
2023-04-20T00:05:40.431Z,42.88
2023-04-20T00:08:13.622Z,42.84
2023-04-20T00:10:47.526Z,42.87
2023-04-20T00:13:20.338Z,42.88
2023-04-20T00:15:53.284Z,42.85
2023-04-20T00:18:26.289Z,42.87
2023-04-20T00:20:59.596Z,42.83
2023-04-20T00:23:32.569Z,42.87
2023-04-20T00:26:05.699Z,42.85
2023-04-20T00:28:39.396Z,42.84
2023-04-20T00:31:12.280Z,42.84
2023-04-20T00:33:45.472Z,42.87
2023-04-20T00:36:18.491Z,42.88
2023-04-20T00:38:51.525Z,42.85
2023-04-20T00:41:24.501Z,42.85
2023-04-20T00:43:57.365Z,42.85
2023-04-20T00:46:32.521Z,42.82
2023-04-20T00:49:05.477Z,42.84
2023-04-20T00:51:38.379Z,42.81
2023-04-20T00:54:11.244Z,42.84
2023-04-20T00:56:44.445Z,42.79
2023-04-20T00:59:17.546Z,42.78
2023-04-20T01:01:50.320Z,42.75
2023-04-20T01:04:23.892Z,42.75
2023-04-20T01:06:57.549Z,42.74
2023-04-20T01:09:30.318Z,42.67
2023-04-20T01:12:03.218Z,42.74
2023-04-20T01:14:36.381Z,42.74
2023-04-20T01:17:09.241Z,42.77
2023-04-20T01:19:42.540Z,42.73
2023-04-20T01:22:15.547Z,42.79
2023-04-20T01:24:48.558Z,42.79
2023-04-20T01:27:21.376Z,42.83
2023-04-20T01:29:54.459Z,42.81
2023-04-20T01:32:27.614Z,42.82
2023-04-20T01:35:00.635Z,42.87
2023-04-20T01:37:33.384Z,42.85
2023-04-20T01:40:06.370Z,42.92
2023-04-20T01:42:39.672Z,43.02
2023-04-20T01:45:12.510Z,43.05
2023-04-20T01:47:48.494Z,43.01
2023-04-20T01:50:21.446Z,43.05
2023-04-20T01:52:54.735Z,43.05
2023-04-20T01:55:28.505Z,43.08
2023-04-20T01:58:01.588Z,43.11
2023-04-20T02:00:34.772Z,43.12
2023-04-20T02:03:08.606Z,43.16
2023-04-20T02:05:41.467Z,43.18
2023-04-20T02:08:14.464Z,43.13
2023-04-20T02:10:47.628Z,43.13
2023-04-20T02:13:20.498Z,43.15
2023-04-20T02:15:53.620Z,43.20
2023-04-20T02:18:30.255Z,43.15
2023-04-20T02:21:03.645Z,43.18
2023-04-20T02:23:36.709Z,43.15
2023-04-20T02:26:09.715Z,43.19
2023-04-20T02:28:47.129Z,43.20
2023-04-20T02:31:20.678Z,43.05
2023-04-20T02:33:53.465Z,43.26
2023-04-20T02:36:26.623Z,43.24
2023-04-20T02:38:59.377Z,43.17
2023-04-20T02:41:32.595Z,43.18
2023-04-20T02:44:05.486Z,43.11
2023-04-20T02:46:38.909Z,43.16
2023-04-20T02:49:12.633Z,43.18
2023-04-20T02:51:45.621Z,43.11
2023-04-20T02:54:18.762Z,43.15
2023-04-20T02:56:51.743Z,43.10
2023-04-20T02:59:24.489Z,43.19
2023-04-20T03:01:57.881Z,43.33
2023-04-20T03:04:30.934Z,43.20
2023-04-20T03:07:03.548Z,43.22
2023-04-20T03:09:36.832Z,43.21
2023-04-20T03:12:09.594Z,43.19
2023-04-20T03:14:42.740Z,43.29
2023-04-20T03:17:15.451Z,43.30
2023-04-20T03:19:48.450Z,43.26
2023-04-20T03:22:21.763Z,43.28
2023-04-20T03:24:54.498Z,43.23
2023-04-20T03:27:31.473Z,43.27
2023-04-20T03:30:04.752Z,43.20
2023-04-20T03:32:37.925Z,43.19
2023-04-20T03:35:11.507Z,43.21
2023-04-20T03:37:44.446Z,43.15
2023-04-20T03:40:17.822Z,43.16
2023-04-20T03:42:50.754Z,43.23
2023-04-20T03:45:23.473Z,43.22
2023-04-20T03:47:56.558Z,43.20
2023-04-20T03:50:29.701Z,43.20
2023-04-20T03:55:36.866Z,43.17
2023-04-20T03:58:10.585Z,43.19
2023-04-20T04:00:43.875Z,43.18
2023-04-20T04:03:16.824Z,43.22
2023-04-20T04:05:49.520Z,43.23
2023-04-20T04:08:22.586Z,43.20
2023-04-20T04:10:55.553Z,43.20
2023-04-20T04:13:33.944Z,43.21
2023-04-20T04:16:04.779Z,43.21
2023-04-20T04:18:37.506Z,43.16
2023-04-20T04:21:10.591Z,43.17
2023-04-20T04:23:43.612Z,43.16
2023-04-20T04:26:16.891Z,43.14
2023-04-20T04:28:49.537Z,43.14
2023-04-20T04:31:22.671Z,43.13
2023-04-20T04:33:55.551Z,43.14
2023-04-20T04:36:35.515Z,43.13
2023-04-20T04:39:08.579Z,43.13
2023-04-20T04:41:41.666Z,43.14
2023-04-20T04:44:14.698Z,43.13
2023-04-20T04:46:47.904Z,43.15
2023-04-20T04:49:21.090Z,43.13
2023-04-20T04:51:57.358Z,43.14
2023-04-20T04:54:31.050Z,43.10
2023-04-20T04:57:04.770Z,43.09
2023-04-20T04:59:37.922Z,43.07
2023-04-20T05:02:10.716Z,43.05
2023-04-20T05:04:44.013Z,43.00
2023-04-20T05:07:16.818Z,43.06
2023-04-20T05:09:49.599Z,43.20
2023-04-20T05:12:23.020Z,43.17
2023-04-20T05:14:55.580Z,43.11
2023-04-20T05:17:28.963Z,43.21
2023-04-20T05:20:01.700Z,43.15
2023-04-20T05:22:35.119Z,43.01
2023-04-20T05:25:08.699Z,43.04
2023-04-20T05:27:41.791Z,42.90
2023-04-20T05:30:20.335Z,42.88
2023-04-20T05:32:51.138Z,42.79
2023-04-20T05:35:20.975Z,42.78
2023-04-20T05:37:53.868Z,42.82
2023-04-20T05:40:28.127Z,42.87
2023-04-20T05:43:02.054Z,42.82
2023-04-20T05:45:35.018Z,42.84
2023-04-20T05:48:07.960Z,42.81
2023-04-20T05:50:40.911Z,42.85
2023-04-20T05:53:13.957Z,42.87
2023-04-20T05:55:46.777Z,42.83
2023-04-20T05:58:19.970Z,42.84
2023-04-20T06:00:52.661Z,42.80
2023-04-20T06:03:26.204Z,42.86
2023-04-20T06:05:58.902Z,42.83
2023-04-20T06:08:32.115Z,42.78
2023-04-20T06:11:05.769Z,42.76
2023-04-20T06:13:38.937Z,42.72
2023-04-20T06:16:13.930Z,42.69
2023-04-20T06:18:47.017Z,42.63
2023-04-20T06:21:19.662Z,42.68
2023-04-20T06:23:52.810Z,42.61
2023-04-20T06:26:25.956Z,42.55
2023-04-20T06:31:32.941Z,42.57
2023-04-20T06:34:05.979Z,42.59
2023-04-20T06:36:38.697Z,42.59
2023-04-20T06:39:11.946Z,42.52
2023-04-20T06:41:44.803Z,42.48
2023-04-20T06:44:17.975Z,42.47
2023-04-20T06:46:51.055Z,42.46
2023-04-20T06:49:24.102Z,42.55
2023-04-20T06:51:56.729Z,42.50
2023-04-20T06:54:30.104Z,42.52
2023-04-20T06:57:02.726Z,42.55
2023-04-20T06:59:35.895Z,42.56
2023-04-20T07:02:09.111Z,42.58
2023-04-20T07:04:41.962Z,42.56
2023-04-20T07:07:14.999Z,42.53
2023-04-20T07:09:47.972Z,42.54
2023-04-20T07:12:20.962Z,42.51
2023-04-20T07:14:54.081Z,42.54
2023-04-20T07:17:27.032Z,42.50
2023-04-20T07:19:59.780Z,42.54
2023-04-20T07:22:32.958Z,42.54
2023-04-20T07:25:05.762Z,42.53
2023-04-20T07:27:38.889Z,42.53
2023-04-20T07:30:13.167Z,42.50
2023-04-20T07:32:46.206Z,42.54
2023-04-20T07:35:19.176Z,42.57
2023-04-20T07:37:52.101Z,42.57
2023-04-20T07:40:25.133Z,42.56
2023-04-20T07:42:58.083Z,42.57
2023-04-20T07:45:31.210Z,42.55
2023-04-20T07:48:04.150Z,42.58
2023-04-20T07:50:37.163Z,42.59
2023-04-20T07:53:10.111Z,42.59
2023-04-20T07:55:48.142Z,42.56
2023-04-20T07:58:19.944Z,42.57
2023-04-20T08:00:53.125Z,42.58
2023-04-20T08:03:26.465Z,42.55
2023-04-20T08:05:59.260Z,42.57
2023-04-20T08:08:32.107Z,42.59
2023-04-20T08:11:04.830Z,42.55
2023-04-20T08:13:38.403Z,42.56
2023-04-20T08:16:12.028Z,42.56
2023-04-20T08:18:45.450Z,42.58
2023-04-20T08:21:18.031Z,42.55
2023-04-20T08:23:51.181Z,42.57
2023-04-20T08:26:24.045Z,42.55
2023-04-20T08:28:57.187Z,42.59
2023-04-20T08:31:30.237Z,42.57
2023-04-20T08:34:03.334Z,42.59
2023-04-20T08:36:36.197Z,42.61
2023-04-20T08:39:08.918Z,42.63
2023-04-20T08:41:42.127Z,42.58
2023-04-20T08:44:15.578Z,42.66
2023-04-20T08:46:48.078Z,42.64
2023-04-20T08:49:21.043Z,42.64
2023-04-20T08:51:54.108Z,42.62
2023-04-20T08:54:27.065Z,42.62
2023-04-20T08:56:59.942Z,42.63
2023-04-20T08:59:33.266Z,42.63
2023-04-20T09:02:06.285Z,42.66
2023-04-20T09:04:39.426Z,42.64
2023-04-20T09:07:11.975Z,42.62
2023-04-20T09:09:45.328Z,42.61
2023-04-20T09:12:18.339Z,42.64
2023-04-20T09:14:50.966Z,42.60
2023-04-20T09:17:24.239Z,42.63
2023-04-20T09:19:57.240Z,42.62
2023-04-20T09:22:30.078Z,42.63
2023-04-20T09:25:02.933Z,42.62
2023-04-20T09:27:36.161Z,42.64
2023-04-20T09:30:08.990Z,42.63
2023-04-20T09:32:42.191Z,42.67
2023-04-20T09:35:21.467Z,42.66
2023-04-20T09:37:53.937Z,42.67
2023-04-20T09:40:27.081Z,42.68
2023-04-20T09:43:00.213Z,42.67
2023-04-20T09:45:33.366Z,42.65
2023-04-20T09:48:06.355Z,42.63
2023-04-20T09:50:48.520Z,42.64
2023-04-20T09:53:12.115Z,42.66
2023-04-20T09:55:45.149Z,42.69
2023-04-20T09:58:18.344Z,42.71
2023-04-20T10:00:51.474Z,42.72
2023-04-20T10:03:24.230Z,42.73
2023-04-20T10:05:57.446Z,42.72
2023-04-20T10:08:30.331Z,42.76
2023-04-20T10:11:03.078Z,42.72
2023-04-20T10:13:39.127Z,42.76
2023-04-20T10:16:12.411Z,42.72
2023-04-20T10:18:45.313Z,42.75
2023-04-20T10:21:18.099Z,42.74
2023-04-20T10:23:51.311Z,42.76
2023-04-20T10:26:24.403Z,42.72
2023-04-20T10:28:57.468Z,42.74
2023-04-20T10:31:30.177Z,42.76
2023-04-20T10:34:03.069Z,42.79
2023-04-20T10:36:36.420Z,42.80
2023-04-20T10:39:09.066Z,42.71
2023-04-20T10:41:42.427Z,42.70
2023-04-20T10:44:15.319Z,42.68
2023-04-20T10:46:48.369Z,42.58
2023-04-20T10:49:21.367Z,42.67
2023-04-20T10:51:57.153Z,42.69
2023-04-20T10:54:30.340Z,42.73
2023-04-20T10:57:03.148Z,42.79
2023-04-20T10:59:36.459Z,42.80
2023-04-20T11:02:09.354Z,42.81
2023-04-20T11:04:42.309Z,42.82
2023-04-20T11:07:15.452Z,42.85
2023-04-20T11:09:48.302Z,42.84
2023-04-20T11:12:21.455Z,42.84
2023-04-20T11:14:54.336Z,42.90
2023-04-20T11:17:41.254Z,42.90
2023-04-20T11:20:14.525Z,42.89
2023-04-20T11:22:50.324Z,42.89
2023-04-20T11:25:23.321Z,42.88
2023-04-20T11:27:56.454Z,42.89
2023-04-20T11:30:29.245Z,42.90
2023-04-20T11:33:02.201Z,42.89
2023-04-20T11:35:35.262Z,42.88
2023-04-20T11:38:08.184Z,42.91
2023-04-20T11:40:41.437Z,42.91
2023-04-20T11:43:14.265Z,42.94
2023-04-20T11:45:47.322Z,42.94
2023-04-20T11:48:20.325Z,42.99
2023-04-20T11:50:53.291Z,42.99
2023-04-20T11:53:26.398Z,43.01
2023-04-20T11:55:59.451Z,43.03
2023-04-20T11:58:32.355Z,43.03
2023-04-20T12:01:05.347Z,43.02
2023-04-20T12:03:38.425Z,43.04
2023-04-20T12:06:11.486Z,43.03
2023-04-20T12:08:44.593Z,43.03
2023-04-20T12:11:17.210Z,43.03
2023-04-20T12:13:50.529Z,43.06
2023-04-20T12:16:23.438Z,43.07
2023-04-20T12:19:02.127Z,43.03
2023-04-20T12:21:35.376Z,43.01
2023-04-20T12:24:08.288Z,42.99
2023-04-20T12:26:41.259Z,42.97
2023-04-20T12:29:14.358Z,42.97
2023-04-20T12:31:47.376Z,42.97
2023-04-20T12:34:20.556Z,42.98
2023-04-20T12:36:53.369Z,42.99
2023-04-20T12:39:28.545Z,43.05
2023-04-20T12:42:01.440Z,43.08
2023-04-20T12:44:34.539Z,43.07
2023-04-20T12:47:07.287Z,43.08
2023-04-20T12:49:40.382Z,43.07
2023-04-20T12:52:13.241Z,43.09
2023-04-20T12:54:46.655Z,43.10
2023-04-20T12:57:19.485Z,43.13
2023-04-20T13:02:26.722Z,43.16
2023-04-20T13:04:59.571Z,43.16
2023-04-20T13:07:32.454Z,43.19
2023-04-20T13:10:05.321Z,43.15
2023-04-20T13:12:38.386Z,43.20
2023-04-20T13:15:11.635Z,43.22
2023-04-20T13:17:44.479Z,43.26
2023-04-20T13:20:17.503Z,43.25
2023-04-20T13:22:57.542Z,43.25
2023-04-20T13:25:23.606Z,43.27
2023-04-20T13:27:56.440Z,43.27
2023-04-20T13:30:29.515Z,43.26
2023-04-20T13:33:02.388Z,43.29
2023-04-20T13:35:35.405Z,43.28
2023-04-20T13:38:08.296Z,43.27
2023-04-20T13:40:41.659Z,43.30
2023-04-20T13:43:14.320Z,43.30
2023-04-20T13:45:47.496Z,43.28
2023-04-20T13:48:20.414Z,43.25
2023-04-20T13:50:53.737Z,43.24
2023-04-20T13:53:26.359Z,43.26
2023-04-20T13:56:16.755Z,43.24
2023-04-20T13:58:49.422Z,43.24
2023-04-20T14:01:22.672Z,43.29
2023-04-20T14:03:55.524Z,43.25
2023-04-20T14:06:28.397Z,43.26
2023-04-20T14:09:01.418Z,43.30
2023-04-20T14:11:34.398Z,43.33
2023-04-20T14:14:07.377Z,43.30
2023-04-20T14:16:40.432Z,43.33
2023-04-20T14:19:13.612Z,43.30
2023-04-20T14:21:46.696Z,43.33
2023-04-20T14:24:19.726Z,43.37
2023-04-20T14:26:52.460Z,43.30
2023-04-20T14:29:25.756Z,43.36
2023-04-20T14:31:58.540Z,43.38
2023-04-20T14:34:31.596Z,43.41
2023-04-20T14:37:07.562Z,43.42
2023-04-20T14:39:40.569Z,43.40
2023-04-20T14:42:13.639Z,43.46
2023-04-20T14:44:46.836Z,43.52
2023-04-20T14:47:20.772Z,43.53
2023-04-20T14:49:53.525Z,43.52
2023-04-20T14:52:26.603Z,43.52
2023-04-20T14:54:59.576Z,43.51
2023-04-20T14:57:32.494Z,43.54
2023-04-20T15:00:05.446Z,43.56
2023-04-20T15:02:38.942Z,43.53
2023-04-20T15:05:11.597Z,43.59
2023-04-20T15:07:44.620Z,43.56
2023-04-20T15:10:17.499Z,43.57
2023-04-20T15:12:50.838Z,43.52
2023-04-20T15:15:23.487Z,43.32
2023-04-20T15:17:56.775Z,43.43
2023-04-20T15:20:29.461Z,43.48
2023-04-20T15:23:02.941Z,43.49
2023-04-20T15:25:36.679Z,43.49
2023-04-20T15:28:09.787Z,43.50
2023-04-20T15:30:46.639Z,43.52
2023-04-20T15:33:20.146Z,43.55
2023-04-20T15:35:53.705Z,43.53
2023-04-20T15:38:26.854Z,43.53
2023-04-20T15:41:00.955Z,43.55
2023-04-20T15:43:34.846Z,43.51
2023-04-20T15:46:07.532Z,43.45
2023-04-20T15:48:40.990Z,43.41
2023-04-20T15:51:14.874Z,43.39
2023-04-20T15:53:47.843Z,43.32
2023-04-20T15:56:20.696Z,43.28
2023-04-20T15:58:53.739Z,43.27
2023-04-20T16:01:26.747Z,43.17
2023-04-20T16:03:59.744Z,43.13
2023-04-20T16:06:32.807Z,43.09
2023-04-20T16:09:05.554Z,43.05
2023-04-20T16:11:38.648Z,43.02
2023-04-20T16:14:11.857Z,43.13
2023-04-20T16:16:44.630Z,43.16
2023-04-20T16:19:17.634Z,43.23
2023-04-20T16:21:51.138Z,43.23
2023-04-20T16:24:24.859Z,43.24
2023-04-20T16:26:57.759Z,43.33
2023-04-20T16:29:30.574Z,43.31
2023-04-20T16:32:03.583Z,43.30
2023-04-20T16:34:36.596Z,43.27
2023-04-20T16:37:09.860Z,43.33
2023-04-20T16:39:43.010Z,43.32
2023-04-20T16:42:15.875Z,43.31
2023-04-20T16:44:48.958Z,43.31
2023-04-20T16:47:21.971Z,43.37
2023-04-20T16:49:55.058Z,43.37
2023-04-20T16:52:29.025Z,43.31
2023-04-20T16:55:02.022Z,43.35
2023-04-20T16:57:34.945Z,43.32
2023-04-20T17:00:07.905Z,43.32
2023-04-20T17:02:40.665Z,43.34
2023-04-20T17:05:13.958Z,43.33
2023-04-20T17:07:46.969Z,43.31
2023-04-20T17:10:19.797Z,43.33
2023-04-20T17:12:52.759Z,43.37
2023-04-20T17:15:25.871Z,43.25
2023-04-20T17:17:58.892Z,43.25
2023-04-20T17:20:31.843Z,43.25
2023-04-20T17:23:04.884Z,43.26
2023-04-20T17:25:38.173Z,43.25
2023-04-20T17:28:11.766Z,43.24
2023-04-20T17:30:44.805Z,43.23
2023-04-20T17:33:17.653Z,43.18
2023-04-20T17:35:50.975Z,42.58
2023-04-20T17:38:23.791Z,42.08
2023-04-20T17:40:56.974Z,41.48
2023-04-20T17:43:29.694Z,40.91
2023-04-20T17:46:03.043Z,40.74
2023-04-20T17:48:35.797Z,40.18
2023-04-20T17:51:08.694Z,40.06
2023-04-20T17:53:42.030Z,40.07
2023-04-20T17:56:14.812Z,39.96
2023-04-20T17:58:47.687Z,39.89
2023-04-20T18:01:23.806Z,39.98
2023-04-20T18:03:57.435Z,40.26
2023-04-20T18:06:30.136Z,40.45
2023-04-20T18:09:02.701Z,40.54
2023-04-20T18:11:40.125Z,40.65
2023-04-20T18:14:12.721Z,40.67
2023-04-20T18:16:45.854Z,40.75
2023-04-20T18:19:18.931Z,40.79
2023-04-20T18:21:53.205Z,40.83
2023-04-20T18:24:26.073Z,40.86
2023-04-20T18:26:58.869Z,41.00
2023-04-20T18:29:31.996Z,40.98
2023-04-20T18:32:05.114Z,40.98
2023-04-20T18:34:38.094Z,40.99
2023-04-20T18:37:10.766Z,41.02
2023-04-20T18:39:43.797Z,41.04
2023-04-20T18:42:17.191Z,41.13
2023-04-20T18:44:51.112Z,41.08
2023-04-20T18:47:24.337Z,41.09
2023-04-20T18:49:58.084Z,41.16
2023-04-20T18:52:31.121Z,41.11
2023-04-20T18:55:04.099Z,41.17
2023-04-20T18:57:36.835Z,41.16
2023-04-20T19:00:09.791Z,41.17
2023-04-20T19:02:43.153Z,41.11
2023-04-20T19:05:16.000Z,41.18
2023-04-20T19:07:49.103Z,41.24
2023-04-20T19:10:22.074Z,41.20
2023-04-20T19:12:54.908Z,41.23
2023-04-20T19:15:28.138Z,41.18
2023-04-20T19:18:01.217Z,41.27
2023-04-20T19:20:34.023Z,41.23
2023-04-20T19:23:06.866Z,41.23
2023-04-20T19:25:39.940Z,41.21
2023-04-20T19:28:12.864Z,41.18
2023-04-20T19:30:46.019Z,41.24
2023-04-20T19:33:19.374Z,41.18
2023-04-20T19:35:52.337Z,41.19
2023-04-20T19:38:26.196Z,41.35
2023-04-20T19:40:59.270Z,41.36
2023-04-20T19:43:32.065Z,41.40
2023-04-20T19:46:04.880Z,41.43
2023-04-20T19:48:41.031Z,41.47
2023-04-20T19:51:14.203Z,41.50
2023-04-20T19:53:47.071Z,41.55
2023-04-20T19:56:19.868Z,41.54
2023-04-20T19:58:52.884Z,41.57
2023-04-20T20:01:26.136Z,41.54
2023-04-20T20:03:59.236Z,41.61
2023-04-20T20:06:32.181Z,41.61
2023-04-20T20:09:05.865Z,41.56
2023-04-20T20:11:40.086Z,41.58
2023-04-20T20:14:12.945Z,41.59
2023-04-20T20:16:46.001Z,41.68
2023-04-20T20:19:19.277Z,41.61
2023-04-20T20:21:52.752Z,41.74
2023-04-20T20:24:26.188Z,41.72
2023-04-20T20:26:59.013Z,41.72
2023-04-20T20:29:32.059Z,41.73
2023-04-20T20:32:05.203Z,41.76
2023-04-20T20:34:38.009Z,41.79
2023-04-20T20:37:11.002Z,41.77
2023-04-20T20:39:44.249Z,41.83
2023-04-20T20:42:17.293Z,41.82
2023-04-20T20:44:50.252Z,41.83
2023-04-20T20:47:23.535Z,41.85
2023-04-20T20:49:57.536Z,41.90
2023-04-20T20:52:31.311Z,41.94
2023-04-20T20:55:04.949Z,41.93
2023-04-20T20:57:38.535Z,41.94
2023-04-20T21:00:12.249Z,41.31
2023-04-20T21:02:45.213Z,41.49
2023-04-20T21:05:21.968Z,41.72
2023-04-20T21:07:55.334Z,41.78
2023-04-20T21:10:28.177Z,41.87
2023-04-20T21:13:01.121Z,41.94
2023-04-20T21:15:34.199Z,41.93
2023-04-20T21:18:07.393Z,41.96
2023-04-20T21:20:40.220Z,42.01
2023-04-20T21:23:13.126Z,41.93
2023-04-20T21:25:46.243Z,42.02
2023-04-20T21:28:19.336Z,41.96
2023-04-20T21:30:52.278Z,42.00
2023-04-20T21:33:25.140Z,42.00
2023-04-20T21:35:59.037Z,42.05
2023-04-20T21:38:31.554Z,42.10
2023-04-20T21:41:05.299Z,42.08
2023-04-20T21:43:38.401Z,42.09
2023-04-20T21:46:11.376Z,42.10
2023-04-20T21:48:44.371Z,42.17
2023-04-20T21:51:17.362Z,42.14
2023-04-20T21:53:50.316Z,42.15
2023-04-20T21:56:23.286Z,42.21
2023-04-20T21:58:56.126Z,42.18
2023-04-20T22:01:32.243Z,42.23
2023-04-20T22:04:05.820Z,42.27
2023-04-20T22:06:38.194Z,42.29
2023-04-20T22:09:11.322Z,42.39
2023-04-20T22:11:44.395Z,42.39
2023-04-20T22:14:17.143Z,42.44
2023-04-20T22:16:50.217Z,42.49
2023-04-20T22:19:23.256Z,42.48
2023-04-20T22:21:56.228Z,42.56
2023-04-20T22:24:29.228Z,42.55
2023-04-20T22:27:02.254Z,42.60
2023-04-20T22:29:35.243Z,42.71
2023-04-20T22:32:08.086Z,42.73
2023-04-20T22:34:41.254Z,42.73
2023-04-20T22:37:14.446Z,42.74
2023-04-20T22:39:47.368Z,42.81
2023-04-20T22:42:20.498Z,42.82
2023-04-20T22:44:53.592Z,42.83
2023-04-20T22:47:27.380Z,42.91
2023-04-20T22:50:00.458Z,42.83
2023-04-20T22:52:33.255Z,42.93
2023-04-20T22:55:06.115Z,42.93
2023-04-20T22:57:39.507Z,42.99
2023-04-20T23:00:12.252Z,42.95
2023-04-20T23:02:45.676Z,42.99
2023-04-20T23:05:18.627Z,43.02
2023-04-20T23:07:52.314Z,43.01
2023-04-20T23:10:25.262Z,43.04
2023-04-20T23:12:58.363Z,43.06
2023-04-20T23:15:31.281Z,43.09
2023-04-20T23:18:04.525Z,43.15
2023-04-20T23:20:37.259Z,43.12
2023-04-20T23:23:10.186Z,43.16
2023-04-20T23:25:43.313Z,43.17
2023-04-20T23:28:16.509Z,43.20
2023-04-20T23:30:49.273Z,43.23
2023-04-20T23:33:22.524Z,43.24
2023-04-20T23:35:55.458Z,43.24
2023-04-20T23:38:28.343Z,43.31
2023-04-20T23:41:01.509Z,43.25
2023-04-20T23:43:34.302Z,43.26
2023-04-20T23:46:07.386Z,43.26
2023-04-20T23:48:40.480Z,43.28
2023-04-20T23:51:13.492Z,43.31
2023-04-20T23:53:46.327Z,43.38
2023-04-20T23:56:19.432Z,43.50
2023-04-20T23:58:52.648Z,43.47
